createdAt,value
2019-03-13T00:02:10.091Z,100254.08
2019-03-13T00:04:40.570Z,100254.55
2019-03-13T00:07:11.594Z,100245.66
2019-03-13T00:09:42.157Z,100260.91
2019-03-13T00:12:12.689Z,100258.10
2019-03-13T00:14:43.408Z,100250.13
2019-03-13T00:17:13.954Z,100255.21
2019-03-13T00:19:45.987Z,100261.78
2019-03-13T00:22:16.519Z,100261.78
2019-03-13T00:24:47.185Z,100272.07
2019-03-13T00:27:17.651Z,100262.14
2019-03-13T00:29:48.173Z,100258.80
2019-03-13T00:32:18.666Z,100265.50
2019-03-13T00:34:49.379Z,100247.33
2019-03-13T00:37:19.906Z,100247.33
2019-03-13T00:39:50.564Z,100264.81
2019-03-13T00:42:21.172Z,100253.72
2019-03-13T00:44:51.754Z,100266.17
2019-03-13T00:47:22.042Z,100281.41
2019-03-13T00:49:54.217Z,100260.30
2019-03-13T00:52:24.521Z,100263.31
2019-03-13T00:54:56.407Z,100275.19
2019-03-13T00:57:26.719Z,100267.04
2019-03-13T01:00:03.501Z,100257.49
2019-03-13T01:02:36.550Z,100258.23
2019-03-13T01:05:38.605Z,100252.84
2019-03-13T01:08:08.943Z,100261.95
2019-03-13T01:10:39.374Z,100250.41
2019-03-13T01:13:10.050Z,100256.81
2019-03-13T01:15:40.423Z,100251.00
2019-03-13T01:18:16.089Z,100250.66
2019-03-13T01:20:46.049Z,100253.80
2019-03-13T01:23:16.344Z,100256.73
2019-03-13T01:25:46.832Z,100259.28
2019-03-13T01:28:19.592Z,100257.98
2019-03-13T01:30:58.450Z,100255.92
2019-03-13T01:33:30.582Z,100248.86
2019-03-13T01:36:02.923Z,100255.60
2019-03-13T01:38:33.525Z,100247.03
2019-03-13T01:41:05.415Z,100243.30
2019-03-13T01:43:36.642Z,100232.34
2019-03-13T01:46:06.922Z,100222.54
2019-03-13T01:48:39.027Z,100222.83
2019-03-13T01:51:09.601Z,100227.69
2019-03-13T01:53:40.804Z,100220.13
2019-03-13T01:56:11.135Z,100220.00
2019-03-13T01:58:43.545Z,100211.20
2019-03-13T02:01:15.269Z,100226.00
2019-03-13T02:03:45.595Z,100225.61
2019-03-13T02:06:17.183Z,100210.20
2019-03-13T02:08:47.831Z,100207.31
2019-03-13T02:11:18.380Z,100205.91
2019-03-13T02:13:48.911Z,100196.94
2019-03-13T02:16:19.209Z,100194.14
2019-03-13T02:18:51.469Z,100202.20
2019-03-13T02:21:22.293Z,100200.52
2019-03-13T02:23:52.898Z,100201.79
2019-03-13T02:26:23.479Z,100195.58
2019-03-13T02:28:54.004Z,100197.03
2019-03-13T02:31:24.621Z,100199.52
2019-03-13T02:33:54.938Z,100201.92
2019-03-13T02:36:26.773Z,100200.09
2019-03-13T02:38:57.184Z,100208.72
2019-03-13T02:41:28.053Z,100202.72
2019-03-13T02:43:58.415Z,100186.69
2019-03-13T02:46:30.322Z,100197.55
2019-03-13T02:49:00.710Z,100187.62
2019-03-13T02:51:32.039Z,100191.03
2019-03-13T02:54:02.675Z,100187.48
2019-03-13T02:56:34.219Z,100182.84
2019-03-13T02:59:04.558Z,100188.98
2019-03-13T03:01:40.175Z,100189.72
2019-03-13T03:04:11.660Z,100184.77
2019-03-13T03:06:42.339Z,100190.63
2019-03-13T03:09:12.773Z,100177.19
2019-03-13T03:11:44.439Z,100184.90
2019-03-13T03:14:15.072Z,100188.45
2019-03-13T03:16:45.348Z,100181.17
2019-03-13T03:19:15.930Z,100187.22
2019-03-13T03:21:46.546Z,100186.47
2019-03-13T03:24:18.084Z,100183.63
2019-03-13T03:26:48.401Z,100168.39
2019-03-13T03:29:20.933Z,100173.91
2019-03-13T03:31:51.391Z,100160.52
2019-03-13T03:34:23.009Z,100158.24
2019-03-13T03:36:53.316Z,100171.33
2019-03-13T03:39:23.642Z,100164.84
2019-03-13T03:41:54.283Z,100168.08
2019-03-13T03:44:24.575Z,100168.08
2019-03-13T03:46:55.131Z,100178.33
2019-03-13T03:49:25.426Z,100180.26
2019-03-13T03:51:55.743Z,100184.46
2019-03-13T03:54:26.023Z,100179.30
2019-03-13T03:56:56.904Z,100179.03
2019-03-13T03:59:27.165Z,100170.47
2019-03-13T04:01:57.785Z,100167.35
2019-03-13T04:04:28.409Z,100167.35
2019-03-13T04:06:59.108Z,100171.78
2019-03-13T04:09:29.996Z,100175.59
2019-03-13T04:12:00.932Z,100168.89
2019-03-13T04:14:31.268Z,100172.46
2019-03-13T04:17:01.652Z,100174.92
2019-03-13T04:19:32.229Z,100183.86
2019-03-13T04:22:02.579Z,100183.86
2019-03-13T04:24:33.108Z,100187.70
2019-03-13T04:27:03.671Z,100177.53
2019-03-13T04:29:34.649Z,100179.33
2019-03-13T04:32:06.066Z,100182.70
2019-03-13T04:34:36.381Z,100181.06
2019-03-13T04:37:06.956Z,100182.57
2019-03-13T04:39:37.245Z,100170.30
2019-03-13T04:42:09.462Z,100165.64
2019-03-13T04:44:39.739Z,100166.03
2019-03-13T04:47:10.413Z,100168.34
2019-03-13T04:49:40.679Z,100164.16
2019-03-13T04:52:11.121Z,100159.19
2019-03-13T04:54:41.738Z,100157.00
2019-03-13T04:57:12.073Z,100171.47
2019-03-13T04:59:42.479Z,100166.78
2019-03-13T05:02:12.792Z,100177.36
2019-03-13T05:04:43.126Z,100164.79
2019-03-13T05:07:13.750Z,100166.42
2019-03-13T05:09:44.032Z,100166.27
2019-03-13T05:12:16.767Z,100171.39
2019-03-13T05:14:48.283Z,100176.09
2019-03-13T05:17:18.593Z,100166.38
2019-03-13T05:19:48.866Z,100168.92
2019-03-13T05:22:21.459Z,100161.41
2019-03-13T05:24:51.426Z,100161.84
2019-03-13T05:27:22.015Z,100159.77
2019-03-13T05:29:52.307Z,100155.83
2019-03-13T05:32:22.728Z,100159.16
2019-03-13T05:34:53.006Z,100163.93
2019-03-13T05:37:25.104Z,100155.34
2019-03-13T05:39:55.421Z,100150.73
2019-03-13T05:42:27.085Z,100146.11
2019-03-13T05:44:57.350Z,100142.45
2019-03-13T05:47:27.676Z,100148.34
2019-03-13T05:49:58.308Z,100153.03
2019-03-13T05:52:28.650Z,100147.94
2019-03-13T05:54:59.208Z,100131.50
2019-03-13T05:57:29.825Z,100150.59
2019-03-13T06:00:00.937Z,100150.08
2019-03-13T06:02:31.398Z,100132.48
2019-03-13T06:05:02.753Z,100154.99
2019-03-13T06:07:35.883Z,100155.91
2019-03-13T06:10:07.177Z,100153.47
2019-03-13T06:12:37.903Z,100145.47
2019-03-13T06:15:09.047Z,100149.76
2019-03-13T06:17:39.616Z,100150.20
2019-03-13T06:20:10.845Z,100141.77
2019-03-13T06:22:44.319Z,100144.78
2019-03-13T06:25:14.679Z,100139.22
2019-03-13T06:27:46.688Z,100149.87
2019-03-13T06:30:17.195Z,100143.33
2019-03-13T06:32:47.868Z,100142.81
2019-03-13T06:35:18.458Z,100153.76
2019-03-13T06:37:49.041Z,100149.43
2019-03-13T06:40:19.494Z,100153.94
2019-03-13T06:42:50.580Z,100150.45
2019-03-13T06:45:23.317Z,100141.03
2019-03-13T06:47:54.555Z,100138.92
2019-03-13T06:50:24.968Z,100144.88
2019-03-13T06:52:55.486Z,100158.48
2019-03-13T06:55:25.933Z,100145.59
2019-03-13T06:57:56.235Z,100145.59
2019-03-13T07:00:44.277Z,100142.66
2019-03-13T07:03:44.350Z,100147.62
2019-03-13T07:06:43.836Z,100139.48
2019-03-13T07:09:39.280Z,100142.78
2019-03-13T07:12:25.840Z,100151.63
2019-03-13T07:15:24.587Z,100130.73
2019-03-13T07:18:16.938Z,100147.09
2019-03-13T07:20:58.582Z,100131.07
2019-03-13T07:23:42.327Z,100137.22
2019-03-13T07:26:30.190Z,100139.99
2019-03-13T07:29:19.738Z,100140.11
2019-03-13T07:32:24.420Z,100148.11
2019-03-13T07:35:12.845Z,100148.11
2019-03-13T07:38:16.097Z,100143.30
2019-03-13T07:41:04.638Z,100157.52
2019-03-13T07:43:56.555Z,100154.34
2019-03-13T07:46:44.721Z,100145.99
2019-03-13T07:49:49.394Z,100145.99
2019-03-13T07:52:37.648Z,100147.78
2019-03-13T07:55:17.507Z,100141.39
2019-03-13T07:58:00.565Z,100140.62
2019-03-13T08:00:55.699Z,100133.88
2019-03-13T08:03:44.936Z,100128.80
2019-03-13T08:06:43.428Z,100136.50
2019-03-13T08:09:24.032Z,100134.52
2019-03-13T08:12:12.533Z,100128.33
2019-03-13T08:14:55.238Z,100115.02
2019-03-13T08:17:31.734Z,100112.09
2019-03-13T08:20:13.479Z,100107.47
2019-03-13T08:23:02.914Z,100108.17
2019-03-13T08:25:41.482Z,100072.65
2019-03-13T08:28:29.206Z,100094.02
2019-03-13T08:31:14.400Z,100103.42
2019-03-13T08:34:05.299Z,100101.26
2019-03-13T08:36:57.823Z,100092.28
2019-03-13T08:39:58.671Z,100088.83
2019-03-13T08:42:52.930Z,100098.41
2019-03-13T08:45:40.482Z,100099.98
2019-03-13T08:48:31.191Z,100100.77
2019-03-13T08:51:26.556Z,100094.27
2019-03-13T08:54:18.538Z,100092.30
2019-03-13T08:57:07.932Z,100094.67
2019-03-13T08:59:45.083Z,100096.59
2019-03-13T09:02:44.596Z,100099.41
2019-03-13T09:05:32.548Z,100100.31
2019-03-13T09:08:31.184Z,100099.11
2019-03-13T09:11:20.429Z,100104.42
2019-03-13T09:14:12.863Z,100088.89
2019-03-13T09:16:52.791Z,100098.44
2019-03-13T09:19:42.369Z,100097.93
2019-03-13T09:29:45.274Z,100092.16
2019-03-13T09:32:33.244Z,100092.83
2019-03-13T09:35:14.813Z,100094.94
2019-03-13T09:38:03.023Z,100085.45
2019-03-13T09:40:45.592Z,100096.77
2019-03-13T09:43:36.130Z,100094.47
2019-03-13T09:46:19.956Z,100086.60
2019-03-13T09:49:21.571Z,100089.89
2019-03-13T09:52:16.670Z,100084.96
2019-03-13T09:55:04.969Z,100079.55
2019-03-13T09:57:53.275Z,100082.31
2019-03-13T10:00:51.908Z,100080.68
2019-03-13T10:03:33.116Z,100057.78
2019-03-13T10:06:25.425Z,100072.80
2019-03-13T10:09:17.968Z,100073.08
2019-03-13T10:11:59.186Z,100068.52
2019-03-13T10:14:37.200Z,100067.97
2019-03-13T10:17:32.699Z,100069.27
2019-03-13T10:20:20.216Z,100067.45
2019-03-13T10:23:18.952Z,100065.75
2019-03-13T10:26:00.131Z,100060.62
2019-03-13T10:28:52.653Z,100071.35
2019-03-13T10:31:42.815Z,100066.92
2019-03-13T10:34:32.107Z,100060.66
2019-03-13T10:37:18.870Z,100061.55
2019-03-13T10:40:05.662Z,100055.19
2019-03-13T10:42:50.043Z,100055.19
2019-03-13T10:45:26.874Z,100053.48
2019-03-13T10:48:03.360Z,100052.13
2019-03-13T10:50:58.785Z,100056.45
2019-03-13T10:53:51.215Z,100033.58
2019-03-13T10:56:40.560Z,100033.58
2019-03-13T10:59:34.270Z,100040.39
2019-03-13T11:02:39.190Z,100045.62
2019-03-13T11:05:21.350Z,100018.70
2019-03-13T11:08:05.734Z,100034.82
2019-03-13T11:11:00.993Z,100038.23
2019-03-13T11:13:56.485Z,100038.73
2019-03-13T11:16:47.959Z,100035.44
2019-03-13T11:19:45.708Z,100039.50
2019-03-13T11:22:25.597Z,100042.41
2019-03-13T11:25:03.797Z,100040.23
2019-03-13T11:27:53.684Z,100029.46
2019-03-13T11:30:40.021Z,100032.03
2019-03-13T11:33:29.876Z,100041.80
2019-03-13T11:36:28.854Z,100044.88
2019-03-13T11:39:19.471Z,100039.09
2019-03-13T11:42:08.918Z,100026.35
2019-03-13T11:44:56.367Z,100026.35
2019-03-13T11:47:54.117Z,100035.57
2019-03-13T11:50:35.966Z,100010.36
2019-03-13T11:53:13.178Z,100019.10
2019-03-13T11:55:50.509Z,100007.59
2019-03-13T11:58:55.650Z,100008.95
2019-03-13T12:01:45.429Z,100008.95
2019-03-13T12:04:38.020Z,100016.38
2019-03-13T12:07:33.052Z,100015.62
2019-03-13T12:10:18.066Z,100014.19
2019-03-13T12:13:29.845Z,100008.44
2019-03-13T12:16:04.829Z,100020.24
2019-03-13T12:18:48.807Z,100016.61
2019-03-13T12:21:37.985Z,100010.56
2019-03-13T12:24:39.912Z,100014.66
2019-03-13T12:27:44.709Z,100002.78
2019-03-13T12:30:33.979Z,100002.69
2019-03-13T12:33:35.620Z,99997.59
2019-03-13T12:36:30.974Z,99997.59
2019-03-13T12:39:32.404Z,100006.84
2019-03-13T12:42:24.476Z,100006.31
2019-03-13T12:45:14.062Z,100011.12
2019-03-13T12:47:51.578Z,99996.19
2019-03-13T12:50:52.855Z,100003.83
2019-03-13T12:53:57.518Z,100010.19
2019-03-13T12:56:49.816Z,100002.45
2019-03-13T12:59:35.238Z,100008.75
2019-03-13T13:02:19.381Z,100007.52
2019-03-13T13:05:03.335Z,100005.17
2019-03-13T13:07:43.584Z,100005.17
2019-03-13T13:10:26.359Z,100012.20
2019-03-13T13:13:18.978Z,100005.06
2019-03-13T13:16:14.026Z,99999.20
2019-03-13T13:18:54.534Z,99996.72
2019-03-13T13:21:24.941Z,99989.37
2019-03-13T13:23:56.864Z,100000.03
2019-03-13T13:26:27.548Z,99992.39
2019-03-13T13:28:59.874Z,99988.58
2019-03-13T13:31:30.407Z,99989.94
2019-03-13T13:34:01.197Z,99985.19
2019-03-13T13:36:31.783Z,99985.17
2019-03-13T13:39:03.532Z,99967.80
2019-03-13T13:41:35.522Z,99967.41
2019-03-13T13:44:06.054Z,99968.69
2019-03-13T13:46:39.125Z,99966.64
2019-03-13T13:49:10.853Z,99975.22
2019-03-13T13:51:41.206Z,99981.24
2019-03-13T13:54:11.806Z,99981.24
2019-03-13T13:56:42.199Z,99985.70
2019-03-13T13:59:12.746Z,100004.13
2019-03-13T14:01:43.021Z,99993.81
2019-03-13T14:04:13.774Z,99993.34
2019-03-13T14:06:44.103Z,100006.58
2019-03-13T14:09:14.394Z,100007.08
2019-03-13T14:11:44.967Z,99996.96
2019-03-13T14:14:15.321Z,100006.01
2019-03-13T14:16:45.672Z,100016.46
2019-03-13T14:19:16.007Z,100024.20
2019-03-13T14:21:47.718Z,100021.66
2019-03-13T14:24:18.188Z,100021.69
2019-03-13T14:26:50.064Z,100019.51
2019-03-13T14:29:21.143Z,100024.09
2019-03-13T14:31:52.252Z,100030.16
2019-03-13T14:34:22.574Z,100028.92
2019-03-13T14:36:53.232Z,100026.87
2019-03-13T14:39:23.539Z,100039.71
2019-03-13T14:41:54.517Z,100044.37
2019-03-13T14:44:24.990Z,100057.80
2019-03-13T14:46:55.346Z,100064.80
2019-03-13T14:49:26.031Z,100082.52
2019-03-13T14:51:56.738Z,100078.35
2019-03-13T14:54:28.730Z,100088.09
2019-03-13T14:56:59.331Z,100064.34
2019-03-13T14:59:30.106Z,100059.73
2019-03-13T15:04:40.149Z,100057.92
2019-03-13T15:07:10.476Z,100060.24
2019-03-13T15:09:40.760Z,100051.35
2019-03-13T15:12:11.068Z,100050.33
2019-03-13T15:14:45.636Z,100048.28
2019-03-13T15:17:17.721Z,100059.12
2019-03-13T15:19:48.090Z,100062.89
2019-03-13T15:22:18.451Z,100068.75
2019-03-13T15:24:50.775Z,100057.00
2019-03-13T15:27:21.266Z,100054.79
2019-03-13T15:29:51.862Z,100045.98
2019-03-13T15:32:22.227Z,100048.64
2019-03-13T15:34:53.788Z,100072.02
2019-03-13T15:37:24.093Z,100072.27
2019-03-13T15:39:54.718Z,100057.99
2019-03-13T15:42:25.065Z,100057.99
2019-03-13T15:44:57.621Z,100046.20
2019-03-13T15:47:27.948Z,100050.25
2019-03-13T15:49:58.314Z,100059.02
2019-03-13T15:52:28.613Z,100069.08
2019-03-13T15:54:58.967Z,100077.59
2019-03-13T15:57:29.341Z,100071.70
2019-03-13T16:00:00.576Z,100066.90
2019-03-13T16:02:31.680Z,100064.16
2019-03-13T16:05:02.096Z,100073.18
2019-03-13T16:07:32.739Z,100079.18
2019-03-13T16:10:03.681Z,100079.28
2019-03-13T16:12:34.440Z,100078.48
2019-03-13T16:15:05.671Z,100091.11
2019-03-13T16:17:38.048Z,100079.80
2019-03-13T16:20:09.431Z,100081.63
2019-03-13T16:22:41.798Z,100099.51
2019-03-13T16:25:12.455Z,100112.62
2019-03-13T16:27:43.346Z,100112.62
2019-03-13T16:30:18.675Z,100123.95
2019-03-13T16:32:49.077Z,100116.97
2019-03-13T16:35:19.686Z,100113.88
2019-03-13T16:37:54.210Z,100118.37
2019-03-13T16:40:24.943Z,100113.53
2019-03-13T16:42:55.242Z,100115.16
2019-03-13T16:45:26.080Z,100118.03
2019-03-13T16:47:57.818Z,100128.56
2019-03-13T16:50:28.414Z,100133.53
2019-03-13T16:52:59.254Z,100133.05
2019-03-13T16:55:31.171Z,100136.83
2019-03-13T17:00:39.779Z,100134.00
2019-03-13T17:03:10.248Z,100133.69
2019-03-13T17:05:40.680Z,100169.36
2019-03-13T17:08:11.404Z,100160.06
2019-03-13T17:10:41.739Z,100165.55
2019-03-13T17:13:12.169Z,100149.18
2019-03-13T17:15:42.546Z,100149.18
2019-03-13T17:18:12.941Z,100170.00
2019-03-13T17:20:43.362Z,100162.61
2019-03-13T17:23:13.987Z,100174.84
2019-03-13T17:25:44.629Z,100175.00
2019-03-13T17:28:15.225Z,100170.39
2019-03-13T17:30:46.631Z,100189.70
2019-03-13T17:33:17.861Z,100179.25
2019-03-13T17:35:49.610Z,100187.84
2019-03-13T17:38:21.641Z,100183.58
2019-03-13T17:40:53.680Z,100189.94
2019-03-13T17:43:23.977Z,100199.36
2019-03-13T17:45:54.339Z,100205.76
2019-03-13T17:48:24.753Z,100196.30
2019-03-13T17:50:55.442Z,100208.81
2019-03-13T17:53:25.854Z,100216.64
2019-03-13T17:55:56.268Z,100222.29
2019-03-13T17:58:26.707Z,100223.56
2019-03-13T18:00:57.526Z,100209.53
2019-03-13T18:03:27.931Z,100209.53
2019-03-13T18:06:00.648Z,100214.62
2019-03-13T18:08:31.081Z,100225.59
2019-03-13T18:11:01.817Z,100223.24
2019-03-13T18:13:33.236Z,100224.19
2019-03-13T18:16:05.491Z,100233.14
2019-03-13T18:18:36.527Z,100244.58
2019-03-13T18:21:08.628Z,100245.65
2019-03-13T18:23:39.291Z,100252.45
2019-03-13T18:26:11.142Z,100266.12
2019-03-13T18:28:43.395Z,100264.41
2019-03-13T18:31:13.768Z,100273.87
2019-03-13T18:33:44.440Z,100277.55
2019-03-13T18:36:16.355Z,100279.75
2019-03-13T18:38:47.900Z,100287.00
2019-03-13T18:41:18.835Z,100294.91
2019-03-13T18:43:49.283Z,100296.50
2019-03-13T18:46:19.692Z,100295.88
2019-03-13T18:48:50.555Z,100300.44
2019-03-13T18:51:21.190Z,100304.83
2019-03-13T18:53:51.683Z,100309.91
2019-03-13T18:56:23.458Z,100314.52
2019-03-13T18:58:54.081Z,100325.20
2019-03-13T19:01:24.902Z,100338.11
2019-03-13T19:03:55.236Z,100331.02
2019-03-13T19:06:27.303Z,100346.41
2019-03-13T19:08:58.812Z,100352.93
2019-03-13T19:11:31.586Z,100355.97
2019-03-13T19:14:01.955Z,100362.11
2019-03-13T19:16:33.724Z,100362.06
2019-03-13T19:19:04.317Z,100367.55
2019-03-13T19:21:34.812Z,100364.83
2019-03-13T19:24:05.279Z,100365.97
2019-03-13T19:26:35.723Z,100377.27
2019-03-13T19:29:06.205Z,100381.56
2019-03-13T19:31:36.607Z,100388.98
2019-03-13T19:34:09.159Z,100390.16
2019-03-13T19:36:39.735Z,100393.19
2019-03-13T19:39:10.320Z,100397.61
2019-03-13T19:41:41.728Z,100405.77
2019-03-13T19:44:12.105Z,100404.54
2019-03-13T19:46:43.872Z,100407.22
2019-03-13T19:49:14.301Z,100408.75
2019-03-13T19:51:44.693Z,100409.44
2019-03-13T19:54:17.287Z,100415.94
2019-03-13T19:56:47.670Z,100417.33
2019-03-13T19:59:20.844Z,100424.23
2019-03-13T20:01:51.354Z,100430.03
2019-03-13T20:04:21.906Z,100441.42
2019-03-13T20:06:52.324Z,100443.42
2019-03-13T20:11:58.866Z,100458.59
2019-03-13T20:14:33.619Z,100456.16
2019-03-13T20:17:04.455Z,100468.20
2019-03-13T20:19:37.321Z,100469.08
2019-03-13T20:22:08.892Z,100455.64
2019-03-13T20:24:39.449Z,100460.39
2019-03-13T20:27:10.190Z,100465.33
2019-03-13T20:29:40.595Z,100471.53
2019-03-13T20:37:40.670Z,100484.06
2019-03-13T20:40:14.515Z,100482.98
2019-03-13T20:42:45.147Z,100488.00
2019-03-13T20:45:23.086Z,100493.63
2019-03-13T20:47:54.858Z,100491.53
2019-03-13T20:50:35.698Z,100497.73
2019-03-13T20:52:59.348Z,100498.84
2019-03-13T20:55:29.758Z,100501.78
2019-03-13T20:58:00.397Z,100504.23
2019-03-13T21:00:34.524Z,100510.52
2019-03-13T21:03:04.272Z,100512.95
2019-03-13T21:05:35.036Z,100514.97
2019-03-13T21:08:05.771Z,100519.02
2019-03-13T21:10:38.445Z,100511.02
2019-03-13T21:13:08.670Z,100526.15
2019-03-13T21:15:39.513Z,100520.63
2019-03-13T21:18:11.513Z,100520.63
2019-03-13T21:20:41.887Z,100524.83
2019-03-13T21:23:12.231Z,100530.73
2019-03-13T21:25:42.848Z,100533.38
2019-03-13T21:30:49.524Z,100541.58
2019-03-13T21:33:24.015Z,100546.76
2019-03-13T21:35:53.695Z,100543.98
2019-03-13T21:38:24.586Z,100542.66
2019-03-13T21:40:55.175Z,100548.08
2019-03-13T21:43:27.866Z,100548.08
2019-03-13T21:45:58.528Z,100555.60
2019-03-13T21:48:28.951Z,100559.03
2019-03-13T21:50:59.980Z,100558.68
2019-03-13T21:53:30.333Z,100564.50
2019-03-13T21:56:02.941Z,100570.41
2019-03-13T21:58:34.752Z,100586.67
2019-03-13T22:01:05.726Z,100586.67
2019-03-13T22:03:36.010Z,100585.21
2019-03-13T22:06:06.509Z,100587.55
2019-03-13T22:08:38.035Z,100576.96
2019-03-13T22:11:08.666Z,100584.62
2019-03-13T22:13:39.094Z,100596.98
2019-03-13T22:16:10.032Z,100603.22
2019-03-13T22:18:40.356Z,100597.66
2019-03-13T22:21:12.636Z,100594.64
2019-03-13T22:23:43.073Z,100601.13
2019-03-13T22:26:14.523Z,100604.66
2019-03-13T22:28:44.869Z,100606.33
2019-03-13T22:31:15.499Z,100609.14
2019-03-13T22:33:45.816Z,100609.14
2019-03-13T22:36:17.559Z,100623.09
2019-03-13T22:38:47.848Z,100618.02
2019-03-13T22:41:19.442Z,100626.91
2019-03-13T22:43:50.181Z,100627.45
2019-03-13T22:46:20.689Z,100623.55
2019-03-13T22:48:58.262Z,100622.84
2019-03-13T22:51:23.067Z,100631.97
2019-03-13T22:53:53.634Z,100629.78
2019-03-13T22:56:25.624Z,100631.34
2019-03-13T22:58:55.925Z,100636.91
2019-03-13T23:01:27.013Z,100640.38
2019-03-13T23:03:57.976Z,100644.88
2019-03-13T23:06:28.680Z,100638.47
2019-03-13T23:08:59.438Z,100643.02
2019-03-13T23:11:29.967Z,100642.97
2019-03-13T23:14:00.881Z,100643.80
2019-03-13T23:16:34.173Z,100660.49
2019-03-13T23:19:05.970Z,100676.61
2019-03-13T23:21:36.252Z,100677.00
2019-03-13T23:24:07.773Z,100681.06
2019-03-13T23:26:38.074Z,100686.83
2019-03-13T23:29:10.307Z,100675.72
2019-03-13T23:31:40.667Z,100675.72
2019-03-13T23:34:10.956Z,100697.15
2019-03-13T23:36:41.279Z,100686.69
2019-03-13T23:39:12.432Z,100688.59
2019-03-13T23:41:43.406Z,100692.06
2019-03-13T23:44:13.715Z,100693.88
2019-03-13T23:46:45.966Z,100694.36
2019-03-13T23:49:16.357Z,100697.78
2019-03-13T23:51:46.981Z,100701.73
2019-03-13T23:54:17.444Z,100694.45
2019-03-13T23:56:48.158Z,100694.21
2019-03-13T23:59:18.459Z,100707.16
